Forside
METAR-TAF:

METAR-TAF

Lufthavne :

Pyongyang, Nordkorea

Breddekreds: 39-02N, længdekreds: 125-47E, højde: 36 m

METAR: fraværende

Tid: 16:34 (08:04 UTC)

Vejrudsigter

Denne rapport blev lavet for 3 timer og 44 minutter siden, kl. 04:20 UTC
Foreløbig gælder fra 26 på 06 UTC til 27 på 06 UTC
Vind 8 kt fra vestsydvest
Sigt 10 km eller mere
ingen skyer under 1500m og ingen cumulonimbus
ændring
fra 26 på 12 UTC til 26 på 14 UTC
Vind 8 kt fra syd
Sigt: 4000 m
Brudte skyer i en højde af 3000 ft
dis
Midlertidig
fra 26 på 22 UTC til 27 på 06 UTC
Vind 14 kt fra sydvest
Sigt: 2000 m
Overskyet i en højde af 1700 ft
let regn

TAF: ZKPY 260420Z 2606/2706 25004MPS CAVOK TX14/2606Z TN06/2621Z BECMG 2612/2614 17004MPS 4000 BR BKN030 TEMPO 2622/2706 23007MPS 2000 -RA OVC017

Vejrobservationer og prognoser fra mere end 4000 lufthavne (METAR og TAF).

De gule og røde prikker repræsenterer de meteorologiske stationer.

Flyt musen over at se navnet på stationen.

Så klik over at se vejr observationer og prognoser.

At skifte det kort: Klik på de grønne knapper med et sort kors for at zoome ind; på den grønne knap med en bindestreg for at zoome ud; eller på de grønne pile for tilstødende kort.


METAR-TAF: